Time;durP1;ratioP1;P1;durP2;ratioP2;P2;SDS_P1;SDS_P2;PMS_P1;PMS_P2;Temp;Humidity;BMP_temperature;BMP_pressure;BME280_temperature;BME280_humidity;BME280_pressure;Samples;Min_cycle;Max_cycle;Signal;HPM_P1;HPM_P2
2021/07/27 00:00:12;;;;;;;;;28.25;25.50;;;;;22.13;53.85;100843.88;5096924;27;45429;-61
2021/07/27 00:02:37;;;;;;;;;19.50;17.75;;;;;22.13;53.67;100843.03;5087754;27;45236;-59
2021/07/27 00:05:03;;;;;;;;;23.50;21.50;;;;;22.12;53.82;100835.94;5093157;27;45219;-63
2021/07/27 00:07:28;;;;;;;;;21.75;21.00;;;;;22.09;53.59;100837.00;5080165;27;45518;-61
2021/07/27 00:09:54;;;;;;;;;21.25;19.75;;;;;22.06;53.97;100843.41;5092672;27;45293;-61
2021/07/27 00:12:19;;;;;;;;;19.50;17.25;;;;;22.05;53.73;100841.69;5079096;27;45310;-61
2021/07/27 00:14:44;;;;;;;;;20.00;17.75;;;;;22.03;54.08;100843.56;5082482;27;45376;-60
2021/07/27 00:17:10;;;;;;;;;18.25;16.25;;;;;22.00;53.41;100837.53;5082406;27;45319;-60
2021/07/27 00:19:35;;;;;;;;;20.00;17.25;;;;;21.98;53.80;100842.16;5082556;27;45505;-60
2021/07/27 00:22:00;;;;;;;;;24.50;20.50;;;;;21.92;53.52;100830.00;5082452;27;45240;-60
2021/07/27 00:24:26;;;;;;;;;19.25;17.75;;;;;21.89;53.83;100835.53;5082453;27;45261;-60
2021/07/27 00:26:54;;;;;;;;;18.00;18.00;;;;;21.87;53.79;100834.75;5082523;27;45298;-60
2021/07/27 00:29:20;;;;;;;;;20.75;18.00;;;;;21.85;53.78;100828.66;5082189;27;46332;-60
2021/07/27 00:31:46;;;;;;;;;21.50;18.25;;;;;21.80;54.01;100826.25;5082405;27;45255;-60
2021/07/27 00:34:11;;;;;;;;;20.75;18.00;;;;;21.77;54.05;100818.41;5082142;27;45221;-60
2021/07/27 00:36:36;;;;;;;;;20.00;17.50;;;;;21.75;53.67;100814.97;5082479;27;45251;-60
2021/07/27 00:39:02;;;;;;;;;18.75;18.75;;;;;21.75;54.10;100817.66;5082261;27;47720;-60
2021/07/27 00:41:27;;;;;;;;;19.00;19.00;;;;;21.74;53.60;100810.56;5082439;27;45208;-60
2021/07/27 00:43:52;;;;;;;;;17.50;17.50;;;;;21.73;53.60;100814.19;5080997;28;45319;-60
2021/07/27 00:46:18;;;;;;;;;17.25;17.25;;;;;21.71;53.46;100808.06;5082366;27;45520;-60
2021/07/27 00:48:44;;;;;;;;;18.25;17.00;;;;;21.69;53.78;100812.66;5081977;28;45336;-61
2021/07/27 00:51:09;;;;;;;;;19.00;18.25;;;;;21.70;53.55;100807.22;5080930;28;45460;-60
2021/07/27 00:53:35;;;;;;;;;16.00;15.25;;;;;21.69;53.96;100807.31;5080857;28;45414;-61
2021/07/27 00:56:02;;;;;;;;;19.50;18.00;;;;;21.65;53.42;100795.09;5082136;27;45378;-61
2021/07/27 00:58:27;;;;;;;;;20.50;18.25;;;;;21.65;53.40;100798.63;5081731;27;45596;-61
2021/07/27 01:00:53;;;;;;;;;18.25;15.50;;;;;21.64;54.09;100804.91;5091289;27;45464;-61
2021/07/27 01:03:18;;;;;;;;;18.00;17.75;;;;;21.63;53.76;100808.53;5083791;27;45349;-60
2021/07/27 01:05:45;;;;;;;;;17.75;16.00;;;;;21.62;53.79;100806.81;5063764;28;45264;-61
2021/07/27 01:08:11;;;;;;;;;16.00;16.00;;;;;21.61;53.98;100810.47;5068659;28;48169;-61
2021/07/27 01:10:37;;;;;;;;;21.50;20.25;;;;;21.59;53.73;100812.34;5063527;28;45265;-61
2021/07/27 01:13:03;;;;;;;;;19.75;16.50;;;;;21.55;53.66;100809.00;5093898;27;45310;-61
2021/07/27 01:15:29;;;;;;;;;17.75;17.00;;;;;21.56;53.69;100818.75;5093437;27;45334;-61
2021/07/27 01:18:02;;;;;;;;;21.75;18.00;;;;;21.55;53.65;100819.69;5083252;27;47578;-61
2021/07/27 01:44:35;;;;;;;;;17.75;17.75;;;;;21.41;53.78;100807.09;5081466;28;45330;-61
2021/07/27 01:47:01;;;;;;;;;18.75;17.25;;;;;21.41;53.88;100806.25;5080867;27;45470;-60
2021/07/27 01:49:26;;;;;;;;;15.25;14.75;;;;;21.40;53.42;100807.19;5081118;27;46091;-60
2021/07/27 01:51:53;;;;;;;;;19.75;18.00;;;;;21.38;53.49;100793.94;5081138;28;45288;-61
2021/07/27 01:54:28;;;;;;;;;18.25;15.00;;;;;21.39;53.33;100797.44;5081321;28;45305;-61
2021/07/27 01:56:54;;;;;;;;;18.50;18.25;;;;;21.39;53.91;100800.97;5080900;27;45291;-61
2021/07/27 01:59:19;;;;;;;;;18.50;16.00;;;;;21.39;54.02;100798.31;5080931;27;45232;-61
2021/07/27 02:01:44;;;;;;;;;19.50;16.00;;;;;21.40;53.78;100792.00;5097421;27;45162;-61
2021/07/27 02:04:10;;;;;;;;;14.25;14.25;;;;;21.39;53.29;100795.63;5090248;27;45190;-60
2021/07/27 02:06:38;;;;;;;;;19.00;15.75;;;;;21.35;53.59;100794.09;5080827;27;45248;-61
2021/07/27 02:09:06;;;;;;;;;18.00;16.75;;;;;21.36;53.46;100793.16;5067784;28;48136;-61
2021/07/27 02:11:39;;;;;;;;;17.25;16.25;;;;;21.34;53.96;100791.53;5080665;28;45399;-61
2021/07/27 02:14:05;;;;;;;;;15.00;15.00;;;;;21.34;53.92;100787.03;5080929;27;45474;-61
2021/07/27 02:16:30;;;;;;;;;14.00;14.00;;;;;21.34;53.71;100786.19;5080568;27;45300;-60
2021/07/27 02:18:59;;;;;;;;;20.50;20.00;;;;;21.32;53.75;100796.97;5080513;28;45374;-60
2021/07/27 02:21:24;;;;;;;;;15.25;15.25;;;;;21.31;54.04;100783.66;5101060;27;45449;-60
2021/07/27 02:23:49;;;;;;;;;21.00;17.25;;;;;21.28;53.60;100784.72;5087027;27;45221;-60
2021/07/27 02:26:14;;;;;;;;;11.50;11.25;;;;;21.28;53.53;100782.03;5080859;27;45237;-60
2021/07/27 02:28:41;;;;;;;;;20.50;18.00;;;;;21.28;53.43;100779.38;5080268;27;46106;-60
2021/07/27 02:31:11;;;;;;;;;19.25;17.50;;;;;21.27;53.86;100781.19;5080652;27;45464;-60
2021/07/27 02:33:37;;;;;;;;;16.75;16.75;;;;;21.24;54.09;100780.50;5080305;28;45312;-60
2021/07/27 02:36:03;;;;;;;;;15.50;15.50;;;;;21.20;53.64;100777.16;5080244;27;45366;-60
2021/07/27 02:38:28;;;;;;;;;17.50;16.00;;;;;21.20;53.38;100778.97;5078987;28;48179;-60
2021/07/27 02:40:53;;;;;;;;;18.25;15.00;;;;;21.22;53.73;100774.38;5080577;28;45260;-60
2021/07/27 02:43:19;;;;;;;;;16.50;15.25;;;;;21.21;54.05;100775.34;5080530;27;45218;-60
2021/07/27 02:45:44;;;;;;;;;17.50;15.75;;;;;21.20;53.53;100769.13;5080380;28;45158;-60
2021/07/27 02:48:09;;;;;;;;;21.00;15.75;;;;;21.20;54.04;100773.63;5080129;27;46120;-60
2021/07/27 02:50:35;;;;;;;;;16.25;14.25;;;;;21.18;53.77;100775.50;5062221;28;45346;-60
2021/07/27 02:53:00;;;;;;;;;22.75;20.25;;;;;21.16;53.77;100769.41;5062010;28;45540;-60
2021/07/27 02:55:26;;;;;;;;;17.50;16.50;;;;;21.14;54.11;100772.16;5080441;27;45386;-60
2021/07/27 02:57:51;;;;;;;;;19.00;16.50;;;;;21.15;53.65;100775.72;5080040;28;45317;-60
2021/07/27 03:00:18;;;;;;;;;17.50;17.25;;;;;21.16;53.85;100772.94;5084643;27;45265;-60
2021/07/27 03:02:44;;;;;;;;;15.75;14.50;;;;;21.15;53.58;100770.38;5100564;27;45239;-60
2021/07/27 03:05:14;;;;;;;;;18.25;14.75;;;;;21.16;54.18;100782.78;5080484;27;45334;-60
2021/07/27 03:10:20;;;;;;;;;23.25;18.50;;;;;21.12;53.54;100768.72;5087406;27;45432;-61
2021/07/27 03:12:51;;;;;;;;;17.50;14.75;;;;;21.10;54.13;100773.28;5084597;27;45285;-60
2021/07/27 03:15:19;;;;;;;;;16.75;15.25;;;;;21.09;54.07;100763.56;5080039;28;45438;-60
2021/07/27 03:17:45;;;;;;;;;17.50;14.25;;;;;21.05;54.25;100762.88;5061605;27;45370;-60
2021/07/27 03:20:13;;;;;;;;;14.75;13.25;;;;;21.09;53.96;100775.13;5061802;28;46273;-60
2021/07/27 03:22:40;;;;;;;;;16.25;14.50;;;;;21.08;53.60;100767.16;5079941;27;45308;-60
2021/07/27 03:25:10;;;;;;;;;20.75;19.25;;;;;21.08;53.94;100762.69;5079867;27;45443;-60
2021/07/27 03:27:38;;;;;;;;;17.75;16.25;;;;;21.08;53.66;100760.03;5079522;27;46215;-60
2021/07/27 03:30:04;;;;;;;;;15.75;14.00;;;;;21.07;53.70;100763.66;5079474;27;52276;-60
2021/07/27 03:32:29;;;;;;;;;18.75;14.50;;;;;21.04;53.77;100749.59;5079593;28;45170;-61
2021/07/27 03:34:55;;;;;;;;;18.00;15.50;;;;;21.08;53.91;100765.38;5091752;27;45614;-60
2021/07/27 03:37:20;;;;;;;;;16.25;16.00;;;;;21.07;54.42;100755.63;5094715;27;47016;-60
2021/07/27 03:39:48;;;;;;;;;19.25;17.00;;;;;21.07;54.27;100752.13;5079633;28;46783;-60
2021/07/27 03:42:14;;;;;;;;;14.00;14.00;;;;;21.03;54.06;100742.53;5079650;28;45378;-60
2021/07/27 03:44:39;;;;;;;;;19.00;16.75;;;;;21.07;53.85;100736.09;5079644;27;45348;-60
2021/07/27 03:47:04;;;;;;;;;16.50;15.25;;;;;21.06;53.89;100734.34;5079234;27;46268;-61
2021/07/27 03:49:30;;;;;;;;;14.75;14.75;;;;;21.06;53.96;100740.56;5082427;27;45351;-61
2021/07/27 03:51:59;;;;;;;;;18.50;17.50;;;;;21.05;54.23;100737.97;5083205;27;45682;-60
2021/07/27 03:54:32;;;;;;;;;18.00;14.00;;;;;21.02;54.33;100728.34;5083175;27;45213;-60
2021/07/27 03:56:58;;;;;;;;;16.75;15.75;;;;;21.03;53.88;100730.06;5103367;27;45381;-59
2021/07/27 03:59:23;;;;;;;;;18.75;15.75;;;;;21.05;54.38;100724.63;5081542;28;45432;-60
2021/07/27 04:01:50;;;;;;;;;19.00;16.00;;;;;21.01;54.36;100723.09;5100087;27;45389;-60
2021/07/27 04:04:18;;;;;;;;;19.00;17.25;;;;;21.03;54.33;100721.16;5091384;27;45314;-60
2021/07/27 04:06:45;;;;;;;;;19.00;18.25;;;;;21.01;53.81;100720.41;5082491;27;46347;-60
2021/07/27 04:09:11;;;;;;;;;18.50;17.25;;;;;21.01;54.55;100717.75;5096480;27;45382;-60
2021/07/27 04:11:36;;;;;;;;;16.50;12.75;;;;;21.00;53.73;100722.22;5083437;27;45361;-61
2021/07/27 04:14:03;;;;;;;;;18.75;15.25;;;;;21.02;54.26;100722.09;5082635;27;45567;-60
2021/07/27 04:16:29;;;;;;;;;19.00;16.50;;;;;21.01;54.08;100721.25;5082759;27;46356;-60
2021/07/27 04:18:54;;;;;;;;;17.75;15.25;;;;;21.02;54.13;100714.97;5081026;28;45437;-60
2021/07/27 04:21:19;;;;;;;;;16.75;14.25;;;;;21.01;53.77;100715.91;5082579;27;45259;-60
2021/07/27 04:23:45;;;;;;;;;19.25;16.50;;;;;21.02;54.47;100720.31;5082699;27;45253;-60
2021/07/27 04:26:10;;;;;;;;;17.25;16.50;;;;;21.02;54.26;100728.34;5082464;27;46105;-60
2021/07/27 04:28:35;;;;;;;;;18.25;17.25;;;;;21.01;54.20;100741.78;5082292;27;47703;-60
2021/07/27 04:31:00;;;;;;;;;17.50;17.00;;;;;20.99;54.25;100739.19;5082591;27;45221;-60
2021/07/27 04:33:26;;;;;;;;;20.00;17.50;;;;;20.99;54.45;100736.50;5082209;27;45228;-59
2021/07/27 04:35:52;;;;;;;;;19.25;18.25;;;;;21.00;54.47;100740.06;5082228;27;45150;-59
2021/07/27 04:38:17;;;;;;;;;19.50;17.50;;;;;20.99;53.97;100741.84;5082522;27;45186;-59
2021/07/27 04:40:43;;;;;;;;;17.50;16.50;;;;;21.00;54.40;100748.06;5082102;27;45169;-59
2021/07/27 04:43:08;;;;;;;;;15.50;14.50;;;;;20.99;54.17;100751.69;5082303;27;45508;-59
2021/07/27 04:45:33;;;;;;;;;18.50;17.00;;;;;20.98;54.17;100745.50;5082149;27;46063;-59
2021/07/27 04:47:59;;;;;;;;;19.25;17.00;;;;;20.97;54.04;100737.53;5080829;28;45377;-59
2021/07/27 04:50:24;;;;;;;;;14.50;12.75;;;;;20.99;53.81;100727.66;5082119;27;45393;-59
2021/07/27 04:52:53;;;;;;;;;18.25;18.25;;;;;20.99;54.39;100723.16;5082315;27;45312;-59
2021/07/27 04:55:18;;;;;;;;;17.25;16.50;;;;;20.99;54.07;100720.47;5081878;27;46972;-60
2021/07/27 04:57:43;;;;;;;;;19.00;17.00;;;;;21.01;54.29;100723.94;5094750;27;45486;-60
2021/07/27 05:00:15;;;;;;;;;16.25;13.50;;;;;21.02;54.45;100723.00;5098236;27;45569;-59
2021/07/27 05:02:41;;;;;;;;;17.00;16.75;;;;;21.02;54.67;100717.66;5102232;27;45252;-59
2021/07/27 05:05:06;;;;;;;;;22.00;18.00;;;;;20.97;54.06;100726.88;5082834;27;45300;-60
2021/07/27 05:07:32;;;;;;;;;18.00;16.50;;;;;20.93;54.42;100718.19;5082692;27;45362;-59
2021/07/27 05:10:01;;;;;;;;;16.50;14.25;;;;;20.96;53.96;100719.81;5095677;27;45497;-59
2021/07/27 05:12:26;;;;;;;;;17.75;17.00;;;;;20.95;54.36;100726.97;5063514;28;45321;-59
2021/07/27 05:14:51;;;;;;;;;19.00;17.50;;;;;20.96;54.27;100723.34;5081545;27;45150;-60
2021/07/27 05:17:17;;;;;;;;;22.50;17.75;;;;;20.94;54.43;100709.22;5094053;27;45287;-60
2021/07/27 05:19:52;;;;;;;;;17.25;14.75;;;;;20.89;54.55;100716.63;5102054;27;45232;-60
2021/07/27 05:22:19;;;;;;;;;20.25;17.50;;;;;20.89;54.31;100725.53;5090116;27;45518;-60
2021/07/27 05:24:45;;;;;;;;;18.75;17.50;;;;;20.87;54.25;100729.22;5080295;28;46303;-59
2021/07/27 05:27:10;;;;;;;;;20.25;18.00;;;;;20.87;54.55;100734.56;5081292;27;45363;-59
2021/07/27 05:29:35;;;;;;;;;18.25;16.50;;;;;20.85;54.69;100737.31;5081795;27;45292;-60
2021/07/27 05:32:02;;;;;;;;;17.00;15.00;;;;;20.87;54.15;100748.78;5081278;27;45307;-60
2021/07/27 05:34:27;;;;;;;;;21.75;18.00;;;;;20.84;54.72;100746.28;5081349;28;46316;-59
2021/07/27 05:36:53;;;;;;;;;18.75;15.25;;;;;20.85;54.71;100742.66;5095370;27;45365;-60
2021/07/27 05:39:18;;;;;;;;;20.25;17.25;;;;;20.84;54.54;100738.28;5094778;27;45376;-60
2021/07/27 05:41:43;;;;;;;;;21.75;17.75;;;;;20.84;54.61;100740.06;5081232;27;45473;-60
2021/07/27 05:44:10;;;;;;;;;19.25;17.75;;;;;20.84;54.58;100740.94;5081402;28;46199;-60
2021/07/27 05:46:35;;;;;;;;;17.25;16.75;;;;;20.85;53.98;100756.00;5081010;27;45208;-59
2021/07/27 05:49:03;;;;;;;;;16.25;12.50;;;;;20.82;54.50;100766.00;5081543;28;45275;-59
2021/07/27 05:51:29;;;;;;;;;19.25;16.50;;;;;20.80;54.09;100768.75;5095687;27;45398;-59
2021/07/27 05:53:54;;;;;;;;;15.25;15.25;;;;;20.78;54.09;100763.50;5093979;27;45426;-59
2021/07/27 05:56:19;;;;;;;;;14.75;14.25;;;;;20.77;54.64;100756.44;5080964;27;45343;-59
2021/07/27 05:58:45;;;;;;;;;19.75;16.25;;;;;20.74;54.47;100759.31;5081430;27;45469;-59
2021/07/27 06:01:10;;;;;;;;;20.00;17.50;;;;;20.73;54.65;100768.25;5092948;27;45294;-60
2021/07/27 06:03:35;;;;;;;;;18.50;17.00;;;;;20.74;54.82;100779.78;5094473;27;45382;-60
2021/07/27 06:06:01;;;;;;;;;17.50;14.00;;;;;20.73;54.47;100786.94;5080992;28;45240;-60
2021/07/27 06:08:26;;;;;;;;;14.50;12.75;;;;;20.65;54.34;100777.59;5081623;27;45269;-60
2021/07/27 06:10:51;;;;;;;;;18.50;15.50;;;;;20.68;54.82;100791.66;5080444;28;45485;-60
2021/07/27 06:13:17;;;;;;;;;19.75;18.00;;;;;20.69;54.81;100780.03;5080634;27;45370;-61
2021/07/27 06:15:42;;;;;;;;;17.25;14.00;;;;;20.68;54.51;100794.31;5080810;27;45327;-60
2021/07/27 06:18:07;;;;;;;;;15.50;14.25;;;;;20.68;54.31;100802.31;5080564;27;45304;-60
2021/07/27 06:20:33;;;;;;;;;17.25;16.75;;;;;20.64;54.91;100795.44;5079401;28;45573;-60
2021/07/27 06:22:58;;;;;;;;;18.00;17.00;;;;;20.63;54.70;100807.06;5087431;27;45418;-60
2021/07/27 06:25:24;;;;;;;;;19.00;16.00;;;;;20.63;54.91;100801.72;5087393;27;45285;-60
2021/07/27 06:27:49;;;;;;;;;16.75;16.25;;;;;20.62;54.77;100797.31;5087647;27;45237;-60
2021/07/27 06:30:15;;;;;;;;;18.25;17.25;;;;;20.64;54.75;100800.78;5100940;27;45225;-60
2021/07/27 06:32:40;;;;;;;;;20.75;19.25;;;;;20.62;54.26;100789.31;5080452;28;45231;-60
2021/07/27 06:35:06;;;;;;;;;14.25;14.25;;;;;20.66;54.41;100790.88;5080546;27;45227;-55
2021/07/27 06:37:31;;;;;;;;;20.75;20.00;;;;;20.66;54.75;100790.88;5080828;27;45318;-62
2021/07/27 06:39:56;;;;;;;;;19.00;18.25;;;;;20.66;54.57;100792.69;5080409;27;45549;-63
2021/07/27 06:42:22;;;;;;;;;17.00;14.00;;;;;20.71;54.56;100804.84;5080318;28;46119;-63
2021/07/27 06:44:47;;;;;;;;;19.25;18.50;;;;;20.71;54.28;100807.50;5080360;27;45162;-63
2021/07/27 06:47:12;;;;;;;;;16.75;15.25;;;;;20.74;54.20;100801.13;5080618;27;45143;-65
2021/07/27 06:49:38;;;;;;;;;16.25;15.25;;;;;20.74;54.52;100806.47;5080172;27;45658;-63
2021/07/27 06:52:04;;;;;;;;;19.50;19.50;;;;;20.76;54.23;100800.09;5080385;28;45280;-62
2021/07/27 06:54:29;;;;;;;;;21.50;18.50;;;;;20.76;54.65;100805.44;5078863;27;45382;-63
2021/07/27 06:56:55;;;;;;;;;17.25;17.25;;;;;20.72;54.73;100803.06;5080297;28;45303;-62
2021/07/27 06:59:23;;;;;;;;;17.50;16.25;;;;;20.73;54.38;100808.31;5079024;28;45598;-62
2021/07/27 07:01:51;;;;;;;;;18.00;18.00;;;;;20.71;54.25;100810.19;5096934;27;46329;-62
2021/07/27 07:04:16;;;;;;;;;20.50;16.25;;;;;20.64;54.79;100800.78;5088528;27;45249;-62
2021/07/27 07:06:42;;;;;;;;;12.50;10.75;;;;;20.67;54.79;100818.44;5080077;28;45234;-61
2021/07/27 07:09:07;;;;;;;;;23.75;20.00;;;;;20.66;54.33;100822.91;5092816;27;45154;-61
2021/07/27 07:11:33;;;;;;;;;19.00;15.75;;;;;20.65;54.51;100823.00;5081506;27;45296;-61
2021/07/27 07:13:58;;;;;;;;;18.00;17.00;;;;;20.56;54.97;100829.69;5079855;28;45265;-58
2021/07/27 07:16:23;;;;;;;;;20.75;20.75;;;;;20.56;54.54;100816.34;5080028;28;45474;-58
2021/07/27 07:18:49;;;;;;;;;23.25;20.50;;;;;20.55;55.25;100819.97;5079912;28;45496;-58
2021/07/27 07:21:14;;;;;;;;;22.00;17.00;;;;;20.55;54.89;100826.19;5079576;28;46214;-58
2021/07/27 07:23:40;;;;;;;;;18.25;17.00;;;;;20.55;55.01;100818.16;5093445;27;45422;-58
2021/07/27 07:26:06;;;;;;;;;18.00;16.50;;;;;20.53;54.37;100821.88;5098983;27;45425;-58
2021/07/27 07:28:32;;;;;;;;;17.00;15.50;;;;;20.47;54.99;100812.38;5083442;27;45323;-58
2021/07/27 07:30:57;;;;;;;;;19.25;17.75;;;;;20.45;54.71;100822.25;5083052;27;46265;-58
2021/07/27 07:33:23;;;;;;;;;24.75;17.75;;;;;20.45;54.59;100815.13;5083161;27;45347;-58
2021/07/27 07:35:48;;;;;;;;;22.25;19.75;;;;;20.39;54.93;100809.25;5083423;27;45240;-58
2021/07/27 07:38:13;;;;;;;;;18.50;17.75;;;;;20.52;55.07;100831.66;5082210;28;45237;-58
2021/07/27 07:40:38;;;;;;;;;19.00;17.25;;;;;20.51;54.90;100823.75;5083081;27;46098;-58
2021/07/27 07:43:04;;;;;;;;;18.25;16.25;;;;;20.50;55.14;100822.03;5083421;27;45266;-58
2021/07/27 07:45:30;;;;;;;;;21.25;18.50;;;;;20.55;54.90;100839.53;5083350;27;45186;-58
2021/07/27 07:47:56;;;;;;;;;23.25;20.50;;;;;20.58;54.63;100830.50;5083197;27;45261;-58
2021/07/27 07:50:21;;;;;;;;;14.75;13.25;;;;;20.59;55.30;100826.84;5081507;28;47277;-58
2021/07/27 07:52:56;;;;;;;;;19.25;17.50;;;;;20.60;55.12;100829.47;5083168;27;45511;-58
2021/07/27 07:55:21;;;;;;;;;20.25;18.50;;;;;20.57;54.44;100826.94;5083085;27;45279;-58
2021/07/27 07:57:47;;;;;;;;;19.50;18.00;;;;;20.60;54.73;100828.56;5083075;27;45154;-58
2021/07/27 08:00:12;;;;;;;;;18.75;16.75;;;;;20.62;55.26;100826.69;5087737;27;51071;-58
2021/07/27 08:02:38;;;;;;;;;18.75;16.25;;;;;20.60;55.25;100828.56;5103271;27;45256;-58
2021/07/27 08:05:04;;;;;;;;;13.75;13.75;;;;;20.64;55.09;100830.16;5084502;27;45154;-58
2021/07/27 08:07:29;;;;;;;;;20.00;16.50;;;;;20.64;54.71;100832.81;5083513;27;45471;-58
2021/07/27 08:09:54;;;;;;;;;21.75;17.50;;;;;20.66;54.93;100840.75;5096118;27;46173;-59
2021/07/27 08:12:20;;;;;;;;;17.00;15.00;;;;;20.66;55.11;100836.25;5082765;27;45253;-57
2021/07/27 08:14:45;;;;;;;;;19.50;19.00;;;;;20.60;54.77;100828.56;5081411;28;45870;-58
2021/07/27 08:17:13;;;;;;;;;13.50;11.00;;;;;20.58;54.84;100828.66;5082581;27;45380;-58
2021/07/27 08:19:39;;;;;;;;;14.75;12.75;;;;;20.59;54.90;100826.84;5082571;27;45318;-58
2021/07/27 08:22:05;;;;;;;;;18.00;17.25;;;;;20.61;54.46;100827.63;5082527;27;45285;-58
2021/07/27 08:24:32;;;;;;;;;20.25;19.00;;;;;20.60;55.18;100817.91;5064476;28;45302;-58
2021/07/27 08:26:59;;;;;;;;;17.75;16.00;;;;;20.61;55.21;100824.97;5082366;27;45171;-58
2021/07/27 08:29:24;;;;;;;;;18.50;17.00;;;;;20.60;54.61;100810.78;5082291;27;45377;-58
2021/07/27 08:31:50;;;;;;;;;21.00;17.00;;;;;20.63;54.43;100812.41;5082207;27;45396;-59
2021/07/27 08:34:19;;;;;;;;;16.50;15.25;;;;;20.65;54.44;100812.31;5082232;27;45312;-59
2021/07/27 08:36:45;;;;;;;;;19.75;17.00;;;;;20.64;55.05;100819.47;5082565;28;45341;-59
2021/07/27 08:39:11;;;;;;;;;17.00;15.25;;;;;20.61;54.56;100820.47;5089223;27;45438;-60
2021/07/27 08:41:39;;;;;;;;;19.25;18.75;;;;;20.61;54.53;100808.94;5088736;27;45351;-57
2021/07/27 08:44:07;;;;;;;;;19.50;17.25;;;;;20.64;54.79;100814.13;5081358;27;45424;-58
2021/07/27 08:46:32;;;;;;;;;18.75;17.50;;;;;20.66;54.64;100812.22;5081873;27;45485;-58
2021/07/27 08:48:58;;;;;;;;;16.75;14.75;;;;;20.68;54.90;100823.69;5082286;27;45422;-58
2021/07/27 08:51:24;;;;;;;;;20.25;19.00;;;;;20.66;54.85;100820.22;5082342;27;45291;-58
2021/07/27 08:53:50;;;;;;;;;16.75;14.75;;;;;20.63;54.72;100828.44;5082215;27;45402;-58
2021/07/27 08:56:16;;;;;;;;;14.50;14.25;;;;;20.64;55.21;100824.81;5080827;27;45493;-58
2021/07/27 08:58:41;;;;;;;;;23.25;19.75;;;;;20.63;55.09;100831.94;5081773;27;46036;-58
2021/07/27 09:01:07;;;;;;;;;19.75;16.75;;;;;20.62;54.89;100821.34;5093317;27;45296;-58
2021/07/27 09:03:32;;;;;;;;;19.50;18.75;;;;;20.61;54.91;100816.94;5096457;27;45157;-57
2021/07/27 09:06:05;;;;;;;;;21.50;19.00;;;;;20.63;55.26;100823.94;5081994;27;45629;-58
2021/07/27 09:08:31;;;;;;;;;19.75;14.75;;;;;20.64;55.34;100827.47;5089422;27;46216;-59
2021/07/27 09:11:01;;;;;;;;;19.00;17.25;;;;;20.68;54.75;100823.69;5088492;27;45143;-58
2021/07/27 09:13:35;;;;;;;;;19.25;18.25;;;;;20.70;54.96;100826.25;5102243;27;45329;-58
2021/07/27 09:16:02;;;;;;;;;18.50;15.75;;;;;20.68;55.34;100821.03;5082070;27;45351;-58
2021/07/27 09:18:34;;;;;;;;;23.25;21.75;;;;;20.66;55.38;100830.91;5093159;27;46161;-58
2021/07/27 09:21:01;;;;;;;;;21.00;19.25;;;;;20.69;55.50;100821.88;5084192;27;45340;-58
2021/07/27 09:23:27;;;;;;;;;19.00;18.50;;;;;20.69;55.63;100832.53;5102224;27;45330;-58
2021/07/27 09:25:54;;;;;;;;;23.50;19.50;;;;;20.68;55.92;100826.34;5084795;27;45335;-59
2021/07/27 09:28:21;;;;;;;;;22.00;15.75;;;;;20.66;55.51;100827.38;5081501;27;45371;-58
2021/07/27 09:30:48;;;;;;;;;27.50;20.00;;;;;20.62;55.24;100826.69;5081369;27;45282;-58
2021/07/27 09:33:16;;;;;;;;;20.25;16.50;;;;;20.61;55.36;100831.16;5081404;27;45416;-58
2021/07/27 09:35:43;;;;;;;;;22.25;18.25;;;;;20.63;55.10;100829.28;5080031;28;45362;-58
2021/07/27 09:38:18;;;;;;;;;17.75;16.75;;;;;20.60;55.17;100836.59;5080056;28;47139;-58
2021/07/27 09:40:47;;;;;;;;;16.75;16.75;;;;;20.61;55.76;100841.81;5081172;27;45507;-59
2021/07/27 09:43:15;;;;;;;;;17.75;17.75;;;;;20.60;55.22;100832.13;5063356;28;45231;-58
2021/07/27 09:45:41;;;;;;;;;19.50;18.50;;;;;20.58;55.95;100830.50;5079167;28;45472;-58
2021/07/27 09:48:07;;;;;;;;;18.00;16.00;;;;;20.55;55.37;100839.53;5081158;28;45423;-59
2021/07/27 09:50:33;;;;;;;;;16.00;14.25;;;;;20.58;56.04;100836.66;5088218;27;45377;-59
2021/07/27 09:52:59;;;;;;;;;21.50;17.25;;;;;20.60;55.29;100833.91;5087940;27;45388;-59
2021/07/27 09:55:25;;;;;;;;;20.25;18.25;;;;;20.59;55.28;100827.72;5081333;28;45236;-59
2021/07/27 09:57:52;;;;;;;;;19.75;15.00;;;;;20.57;55.73;100829.59;5080895;27;45889;-58
2021/07/27 10:00:17;;;;;;;;;20.50;18.50;;;;;20.59;55.83;100835.72;5085425;27;45299;-58
2021/07/27 10:02:46;;;;;;;;;16.75;15.00;;;;;20.62;55.32;100835.56;5101419;27;45286;-59
2021/07/27 10:05:13;;;;;;;;;20.00;18.25;;;;;20.66;55.36;100846.06;5081292;27;45689;-59
2021/07/27 10:07:40;;;;;;;;;19.00;19.00;;;;;20.64;55.47;100859.53;5081523;27;45288;-57
2021/07/27 10:10:10;;;;;;;;;20.25;18.00;;;;;20.64;55.85;100854.19;5094399;27;45398;-57
2021/07/27 10:12:36;;;;;;;;;17.50;15.50;;;;;20.66;55.92;100860.28;5080962;27;45410;-57
2021/07/27 10:15:13;;;;;;;;;20.25;14.25;;;;;20.67;55.53;100864.69;5092667;27;45487;-57
2021/07/27 10:17:52;;;;;;;;;20.25;18.00;;;;;20.64;56.16;100862.19;5064213;27;48043;-59
2021/07/27 10:20:25;;;;;;;;;19.50;18.75;;;;;20.64;55.63;100862.19;5089956;27;45257;-57
2021/07/27 10:22:51;;;;;;;;;18.00;17.00;;;;;20.62;55.67;100861.41;5080492;27;45378;-57
2021/07/27 10:25:17;;;;;;;;;18.50;15.50;;;;;20.62;55.80;100858.72;5080608;27;45232;-57
2021/07/27 10:27:50;;;;;;;;;14.00;14.00;;;;;20.57;56.05;100853.63;5061983;28;45312;-58
2021/07/27 10:30:16;;;;;;;;;18.00;14.75;;;;;20.59;56.25;100858.88;5062498;28;45466;-57
2021/07/27 10:32:55;;;;;;;;;17.00;15.25;;;;;20.60;56.07;100852.59;5086751;27;45244;-57
2021/07/27 10:35:31;;;;;;;;;15.00;15.00;;;;;20.58;56.12;100851.84;5099208;27;45420;-57
2021/07/27 10:38:07;;;;;;;;;18.50;16.75;;;;;20.59;56.27;100853.53;5080485;27;45390;-57
2021/07/27 10:40:33;;;;;;;;;15.25;15.25;;;;;20.61;56.00;100857.00;5098074;27;45436;-57
2021/07/27 10:42:59;;;;;;;;;19.00;15.75;;;;;20.57;55.89;100850.97;5100882;27;45448;-57
2021/07/27 10:45:26;;;;;;;;;14.00;14.00;;;;;20.60;56.22;100855.28;5096308;27;45577;-57
2021/07/27 10:47:54;;;;;;;;;14.00;14.00;;;;;20.58;56.26;100843.84;5091619;27;46837;-57
2021/07/27 10:50:31;;;;;;;;;16.50;16.50;;;;;20.61;55.99;100844.50;5095129;27;45416;-57
2021/07/27 10:53:06;;;;;;;;;13.50;13.50;;;;;20.61;56.08;100824.97;5080309;27;45371;-57
2021/07/27 10:55:37;;;;;;;;;17.75;17.50;;;;;20.62;56.63;100827.53;5100716;27;45349;-57
2021/07/27 10:58:06;;;;;;;;;14.75;12.75;;;;;20.63;56.35;100836.44;5084961;27;46146;-57
2021/07/27 11:00:33;;;;;;;;;11.75;11.75;;;;;20.67;56.47;100837.13;5086460;27;45434;-57
2021/07/27 11:02:59;;;;;;;;;16.50;15.00;;;;;20.67;56.48;100827.31;5098907;27;45433;-57
2021/07/27 11:05:29;;;;;;;;;14.75;14.25;;;;;20.69;56.21;100821.88;5080270;28;45247;-58
2021/07/27 11:07:55;;;;;;;;;17.75;16.50;;;;;20.71;56.28;100828.03;5082032;27;46118;-57
2021/07/27 11:10:22;;;;;;;;;15.75;13.75;;;;;20.70;56.60;100826.25;5091651;27;45339;-57
2021/07/27 11:12:48;;;;;;;;;16.50;15.50;;;;;20.66;56.03;100833.56;5079740;27;45256;-57
2021/07/27 11:15:21;;;;;;;;;17.25;15.25;;;;;20.73;56.45;100839.50;5080143;28;45323;-57
2021/07/27 11:17:52;;;;;;;;;17.75;14.75;;;;;20.70;56.40;100840.47;5079651;27;45627;-57
2021/07/27 11:20:27;;;;;;;;;20.75;16.75;;;;;20.71;56.62;100841.38;5079678;27;45232;-57
2021/07/27 11:23:18;;;;;;;;;21.00;16.50;;;;;20.71;56.37;100846.72;5079548;28;45268;-57
2021/07/27 11:25:52;;;;;;;;;22.00;15.00;;;;;20.73;56.08;100839.50;5077499;27;45343;-58
2021/07/27 11:28:18;;;;;;;;;25.75;21.25;;;;;20.70;56.14;100840.47;5079470;28;45436;-57
2021/07/27 11:30:44;;;;;;;;;21.00;20.50;;;;;20.74;56.12;100836.72;5079613;27;45275;-57
2021/07/27 11:33:15;;;;;;;;;20.25;18.25;;;;;20.77;56.16;100841.88;5079611;28;45374;-57